SBI1558 CYVR-KOAK
Flight info
| Callsign | SBI1558 |
|---|---|
| Flight time | N/A |
| Altitude | 31000 |
| Route | VIXOR ELMAA UBG DREWS J1 OED HUPTU SPAMY WNDSR2 |
| Aircraft | A20N/M-SDE2E3FGHIJ1RWXY/LB1 |
Departure
| Time | 2026-05-03 23:33 |
|---|---|
| Airport | Vancouver International Airport (CYVR) |
Arrival
| Time | N/A |
|---|---|
| Airport | San Francisco Bay Oakland International Airport (KOAK) |
| Time | Latitude | Longitude | Altitude | Speed | Heading |
|---|---|---|---|---|---|
| 2026-05-03 23:06 | 49.19904 | -123.17932 | 18 ft | 0 kts | 226° |
| 2026-05-03 23:14 | 49.19908 | -123.17926 | 42 ft | 4 kts | 226° |
| 2026-05-03 23:14 | 49.19931 | -123.17899 | 18 ft | 4 kts | 196° |
| 2026-05-03 23:14 | 49.19959 | -123.17900 | 19 ft | 4 kts | 148° |
| 2026-05-03 23:15 | 49.19979 | -123.17932 | 18 ft | 4 kts | 117° |
| 2026-05-03 23:15 | 49.19987 | -123.17974 | 21 ft | 4 kts | 91° |
| 2026-05-03 23:15 | 49.19987 | -123.18044 | 20 ft | 9 kts | 91° |
| 2026-05-03 23:15 | 49.19988 | -123.18057 | 21 ft | 0 kts | 91° |
| 2026-05-03 23:18 | 49.19988 | -123.18055 | 21 ft | 4 kts | 90° |
| 2026-05-03 23:19 | 49.20002 | -123.18050 | 22 ft | 1 kts | 315° |
| 2026-05-03 23:19 | 49.20002 | -123.18059 | 22 ft | 2 kts | 282° |
| 2026-05-03 23:19 | 49.20005 | -123.18095 | 22 ft | 5 kts | 277° |
| 2026-05-03 23:19 | 49.20011 | -123.18161 | 20 ft | 8 kts | 280° |
| 2026-05-03 23:20 | 49.20023 | -123.18255 | 19 ft | 10 kts | 280° |
| 2026-05-03 23:20 | 49.20036 | -123.18372 | 19 ft | 12 kts | 280° |
| 2026-05-03 23:20 | 49.20027 | -123.18505 | 21 ft | 13 kts | 226° |
| 2026-05-03 23:20 | 49.19944 | -123.18535 | 19 ft | 14 kts | 192° |
| 2026-05-03 23:21 | 49.19839 | -123.18566 | 18 ft | 17 kts | 191° |
| 2026-05-03 23:21 | 49.19778 | -123.18583 | 20 ft | 0 kts | 188° |
| 2026-05-03 23:21 | 49.19774 | -123.18584 | 19 ft | 2 kts | 190° |
| 2026-05-03 23:21 | 49.19751 | -123.18607 | 20 ft | 6 kts | 216° |
| 2026-05-03 23:22 | 49.19635 | -123.18694 | 19 ft | 13 kts | 188° |
| 2026-05-03 23:22 | 49.19536 | -123.18699 | 17 ft | 16 kts | 184° |
| 2026-05-03 23:22 | 49.19492 | -123.18727 | 17 ft | 0 kts | 197° |
| 2026-05-03 23:23 | 49.19492 | -123.18728 | 19 ft | 1 kts | 197° |
| 2026-05-03 23:23 | 49.19473 | -123.18736 | 18 ft | 5 kts | 193° |
| 2026-05-03 23:23 | 49.19426 | -123.18749 | 17 ft | 9 kts | 191° |
| 2026-05-03 23:23 | 49.19385 | -123.18824 | 17 ft | 11 kts | 256° |
| 2026-05-03 23:24 | 49.19337 | -123.18894 | 16 ft | 11 kts | 165° |
| 2026-05-03 23:24 | 49.19327 | -123.18884 | 16 ft | 0 kts | 143° |
| 2026-05-03 23:24 | 49.19352 | -123.18898 | 16 ft | 6 kts | 195° |
| 2026-05-03 23:24 | 49.19374 | -123.18867 | 17 ft | 0 kts | 252° |
| 2026-05-03 23:26 | 49.19373 | -123.18872 | 16 ft | 2 kts | 252° |
| 2026-05-03 23:26 | 49.19358 | -123.18893 | 17 ft | 4 kts | 208° |
| 2026-05-03 23:27 | 49.19325 | -123.18881 | 16 ft | 7 kts | 151° |
| 2026-05-03 23:27 | 49.19279 | -123.18830 | 18 ft | 10 kts | 143° |
| 2026-05-03 23:27 | 49.19217 | -123.18757 | 18 ft | 13 kts | 142° |
| 2026-05-03 23:27 | 49.19138 | -123.18663 | 17 ft | 16 kts | 141° |
| 2026-05-03 23:28 | 49.19044 | -123.18550 | 18 ft | 18 kts | 141° |
| 2026-05-03 23:28 | 49.18953 | -123.18402 | 16 ft | 20 kts | 109° |
| 2026-05-03 23:28 | 49.18926 | -123.18182 | 16 ft | 22 kts | 101° |
| 2026-05-03 23:28 | 49.18897 | -123.17940 | 16 ft | 24 kts | 100° |
| 2026-05-03 23:29 | 49.18867 | -123.17676 | 16 ft | 26 kts | 99° |
| 2026-05-03 23:29 | 49.18837 | -123.17394 | 16 ft | 28 kts | 99° |
| 2026-05-03 23:29 | 49.18801 | -123.17096 | 16 ft | 29 kts | 99° |
| 2026-05-03 23:29 | 49.18768 | -123.16781 | 16 ft | 31 kts | 100° |
| 2026-05-03 23:30 | 49.18731 | -123.16475 | 18 ft | 12 kts | 102° |
| 2026-05-03 23:30 | 49.18729 | -123.16457 | 17 ft | 2 kts | 102° |
| 2026-05-03 23:30 | 49.18723 | -123.16415 | 16 ft | 6 kts | 102° |
| 2026-05-03 23:30 | 49.18712 | -123.16342 | 16 ft | 9 kts | 108° |
| 2026-05-03 23:31 | 49.18674 | -123.16254 | 17 ft | 11 kts | 129° |
| 2026-05-03 23:31 | 49.18636 | -123.16135 | 17 ft | 14 kts | 102° |
| 2026-05-03 23:31 | 49.18619 | -123.15976 | 16 ft | 17 kts | 98° |
| 2026-05-03 23:31 | 49.18589 | -123.15794 | 16 ft | 18 kts | 122° |
| 2026-05-03 23:32 | 49.18473 | -123.15777 | 19 ft | 17 kts | 211° |
| 2026-05-03 23:32 | 49.18460 | -123.15935 | 18 ft | 16 kts | 284° |
| 2026-05-03 23:32 | 49.18488 | -123.16187 | 16 ft | 53 kts | 278° |
| 2026-05-03 23:32 | 49.18600 | -123.17159 | 16 ft | 129 kts | 279° |
| 2026-05-03 23:33 | 49.18778 | -123.18785 | 199 ft | 174 kts | 280° |
| 2026-05-03 23:33 | 49.18788 | -123.20682 | 989 ft | 183 kts | 262° |
| 2026-05-03 23:33 | 49.18472 | -123.22647 | 1693 ft | 204 kts | 256° |
| 2026-05-03 23:33 | 49.18077 | -123.24869 | 2306 ft | 229 kts | 251° |
| 2026-05-03 23:34 | 49.17249 | -123.27077 | 3021 ft | 253 kts | 229° |
| 2026-05-03 23:34 | 49.15771 | -123.28610 | 3962 ft | 261 kts | 200° |
| 2026-05-03 23:34 | 49.14088 | -123.29424 | 5393 ft | 247 kts | 197° |
| 2026-05-03 23:34 | 49.12448 | -123.30174 | 6605 ft | 247 kts | 196° |
| 2026-05-03 23:35 | 49.10783 | -123.30932 | 7578 ft | 252 kts | 195° |
| 2026-05-03 23:35 | 49.09085 | -123.31709 | 8575 ft | 256 kts | 195° |
| 2026-05-03 23:35 | 49.07364 | -123.32500 | 9541 ft | 260 kts | 196° |
| 2026-05-03 23:35 | 49.05615 | -123.33308 | 10418 ft | 265 kts | 196° |
| 2026-05-03 23:36 | 49.03837 | -123.34129 | 11259 ft | 269 kts | 196° |
| 2026-05-03 23:36 | 49.02032 | -123.34964 | 12103 ft | 273 kts | 197° |
| 2026-05-03 23:36 | 49.00201 | -123.35810 | 12944 ft | 276 kts | 197° |
| 2026-05-03 23:36 | 48.98346 | -123.36667 | 13684 ft | 281 kts | 197° |
| 2026-05-03 23:37 | 48.96468 | -123.37534 | 14467 ft | 284 kts | 197° |
| 2026-05-03 23:37 | 48.94566 | -123.38411 | 15209 ft | 288 kts | 197° |
| 2026-05-03 23:37 | 48.92639 | -123.39299 | 15948 ft | 292 kts | 197° |
| 2026-05-03 23:37 | 48.90684 | -123.40200 | 16686 ft | 295 kts | 197° |
| 2026-05-03 23:38 | 48.88702 | -123.41112 | 17407 ft | 300 kts | 197° |
| 2026-05-03 23:38 | 48.86694 | -123.42035 | 18131 ft | 303 kts | 197° |